Time;durP1;ratioP1;P1;durP2;ratioP2;P2;SDS_P1;SDS_P2;PMS_P1;PMS_P2;Temp;Humidity;BMP_temperature;BMP_pressure;BME280_temperature;BME280_humidity;BME280_pressure;Samples;Min_cycle;Max_cycle;Signal;HPM_P1;HPM_P2
2022/06/16 00:00:43;;;;;;;3.70;1.08;;;17.00;91.90;;;;;;5022403;28;20041;-69
2022/06/16 00:03:10;;;;;;;4.93;1.17;;;16.90;91.70;;;;;;5040899;28;20062;-67
2022/06/16 00:05:39;;;;;;;3.83;1.20;;;16.90;92.00;;;;;;5021974;28;20473;-69
2022/06/16 00:08:07;;;;;;;2.22;1.30;;;16.80;92.30;;;;;;5041114;28;20443;-69
2022/06/16 00:10:33;;;;;;;1.77;0.63;;;16.80;92.30;;;;;;5021404;28;20120;-70
2022/06/16 00:12:58;;;;;;;3.35;1.20;;;16.70;92.30;;;;;;5023820;28;20045;-69
2022/06/16 00:15:27;;;;;;;4.80;1.15;;;16.70;92.50;;;;;;5038092;28;20041;-66
2022/06/16 00:17:54;;;;;;;3.17;0.95;;;16.60;92.40;;;;;;5038573;28;20090;-68
2022/06/16 00:20:20;;;;;;;6.00;1.63;;;16.50;92.80;;;;;;5040405;28;20115;-69
2022/06/16 00:22:45;;;;;;;4.60;1.48;;;16.40;93.20;;;;;;5021412;28;20041;-69
2022/06/16 00:25:12;;;;;;;2.85;1.05;;;16.40;93.30;;;;;;5043411;28;20086;-69
2022/06/16 00:27:37;;;;;;;3.20;1.38;;;16.40;93.30;;;;;;5023019;28;20037;-69
2022/06/16 00:30:04;;;;;;;2.47;0.85;;;16.40;93.00;;;;;;5018608;28;20103;-68
2022/06/16 00:32:30;;;;;;;5.03;0.93;;;16.30;93.10;;;;;;5041385;28;20033;-69
2022/06/16 00:34:57;;;;;;;5.25;1.15;;;16.30;93.20;;;;;;5037744;28;20033;-68
2022/06/16 00:37:22;;;;;;;3.35;1.40;;;16.30;93.50;;;;;;5023377;28;20520;-69
2022/06/16 00:39:48;;;;;;;3.03;1.33;;;16.20;93.40;;;;;;5023062;28;20036;-69
2022/06/16 00:42:20;;;;;;;6.47;1.10;;;16.20;93.50;;;;;;5039730;28;20040;-69
2022/06/16 00:44:50;;;;;;;5.75;1.35;;;16.20;93.60;;;;;;5038719;28;20040;-70
2022/06/16 00:47:23;;;;;;;3.22;0.95;;;16.20;93.50;;;;;;5039918;28;20077;-68
2022/06/16 00:49:52;;;;;;;3.13;1.10;;;16.10;94.00;;;;;;5021115;28;20067;-68
2022/06/16 00:52:22;;;;;;;3.25;1.40;;;16.10;93.30;;;;;;5040124;28;20041;-68
2022/06/16 00:55:12;;;;;;;5.32;1.58;;;16.10;93.70;;;;;;5037975;28;20033;-67
2022/06/16 00:57:42;;;;;;;4.38;1.13;;;16.00;94.10;;;;;;5035782;28;20087;-69
2022/06/16 01:00:20;;;;;;;3.22;1.23;;;16.00;93.70;;;;;;5020678;28;20523;-66
2022/06/16 01:02:45;;;;;;;2.42;1.13;;;16.00;93.50;;;;;;5039530;28;20072;-69
2022/06/16 01:05:11;;;;;;;4.43;1.40;;;16.00;93.50;;;;;;5038894;28;20036;-68
2022/06/16 01:07:40;;;;;;;5.75;1.40;;;15.90;93.80;;;;;;5038744;28;20021;-68
2022/06/16 01:10:07;;;;;;;2.35;1.27;;;15.90;94.10;;;;;;5021621;28;20033;-66
2022/06/16 01:15:23;;;;;;;5.07;1.40;;;15.80;94.40;;;;;;5037986;28;21650;-68
2022/06/16 01:18:07;;;;;;;5.03;1.65;;;15.70;94.30;;;;;;5035541;28;20728;-68
2022/06/16 01:20:44;;;;;;;3.42;1.00;;;15.70;94.50;;;;;;5038074;28;20512;-66
2022/06/16 01:23:28;;;;;;;6.85;1.30;;;15.60;94.40;;;;;;5038289;28;20402;-68
2022/06/16 01:25:57;;;;;;;6.47;1.95;;;15.60;94.50;;;;;;5035838;28;20034;-69
2022/06/16 01:28:53;;;;;;;4.05;1.17;;;15.60;94.60;;;;;;5014882;28;20494;-68
2022/06/16 01:31:40;;;;;;;3.25;1.00;;;15.50;94.90;;;;;;5020748;28;20497;-68
2022/06/16 01:34:22;;;;;;;3.80;1.25;;;15.50;94.90;;;;;;5034600;28;20092;-68
2022/06/16 01:37:00;;;;;;;2.13;0.93;;;15.40;95.10;;;;;;5037203;28;20124;-67
2022/06/16 01:39:43;;;;;;;2.95;1.40;;;15.40;95.00;;;;;;5033429;28;20120;-68
2022/06/16 01:42:19;;;;;;;4.45;1.42;;;15.30;95.50;;;;;;5036304;28;20037;-68
2022/06/16 01:44:55;;;;;;;5.43;1.40;;;15.20;95.10;;;;;;5037384;28;20481;-68
2022/06/16 01:47:23;;;;;;;2.75;1.30;;;15.20;95.40;;;;;;5033057;28;20037;-69
2022/06/16 01:49:54;;;;;;;2.97;1.58;;;15.10;95.40;;;;;;5020861;28;20494;-69
2022/06/16 01:52:25;;;;;;;4.45;1.33;;;15.10;95.20;;;;;;5025241;28;20103;-68
2022/06/16 01:54:55;;;;;;;;;;;15.10;95.10;;;;;;5015564;28;20068;-67
2022/06/16 01:57:28;;;;;;;1.90;1.02;;;15.10;95.50;;;;;;5014975;28;19939;-67
2022/06/16 02:00:19;;;;;;;2.35;1.48;;;15.10;95.40;;;;;;5033608;28;20131;-69
2022/06/16 02:02:46;;;;;;;;;;;15.10;95.30;;;;;;5040587;28;20031;-69
2022/06/16 02:05:21;;;;;;;3.35;1.00;;;15.00;95.40;;;;;;5047261;28;19939;-68
2022/06/16 02:08:15;;;;;;;3.05;1.42;;;15.00;95.30;;;;;;5045601;28;20170;-69
2022/06/16 02:10:44;;;;;;;3.67;1.85;;;15.00;95.10;;;;;;5042576;28;20125;-68
2022/06/16 02:13:12;;;;;;;3.92;1.42;;;14.90;95.60;;;;;;5040691;28;20095;-68
2022/06/16 02:15:59;;;;;;;4.68;1.25;;;14.90;95.80;;;;;;5039254;28;20029;-68
2022/06/16 02:18:29;;;;;;;3.78;1.65;;;14.90;96.00;;;;;;5033672;28;20041;-68
2022/06/16 02:21:31;;;;;;;6.40;1.48;;;14.80;95.90;;;;;;5039975;28;20040;-69
2022/06/16 02:23:57;;;;;;;6.57;1.25;;;14.80;95.60;;;;;;5032665;28;20052;-68
2022/06/16 02:26:24;;;;;;;4.32;1.20;;;14.80;95.60;;;;;;5042747;28;20056;-67
2022/06/16 02:28:55;;;;;;;5.90;2.25;;;14.80;95.70;;;;;;5035968;28;20464;-69
2022/06/16 02:31:29;;;;;;;2.75;1.25;;;14.80;95.60;;;;;;5032319;28;20552;-69
2022/06/16 02:34:04;;;;;;;6.03;1.50;;;14.70;95.80;;;;;;5031691;28;20413;-70
2022/06/16 02:36:43;;;;;;;3.90;1.42;;;14.70;96.00;;;;;;5037773;28;20049;-68
2022/06/16 02:39:24;;;;;;;7.15;1.92;;;14.70;96.20;;;;;;5021974;28;20099;-68
2022/06/16 02:42:20;;;;;;;5.10;1.58;;;14.60;96.50;;;;;;5033686;28;20529;-69
2022/06/16 02:44:52;;;;;;;4.47;1.33;;;14.60;96.70;;;;;;5023702;28;20403;-68
2022/06/16 02:47:47;;;;;;;3.90;1.45;;;14.50;96.90;;;;;;5017675;28;20065;-69
2022/06/16 02:50:39;;;;;;;3.97;1.70;;;14.50;97.20;;;;;;5040084;28;20048;-66
2022/06/16 02:53:13;;;;;;;3.65;1.33;;;14.50;96.90;;;;;;5038065;28;20040;-69
2022/06/16 02:55:46;;;;;;;3.55;1.60;;;14.40;97.10;;;;;;5040933;28;20108;-67
2022/06/16 02:58:16;;;;;;;5.68;1.38;;;14.40;97.70;;;;;;5041803;28;20045;-69
2022/06/16 03:00:45;;;;;;;5.38;1.77;;;14.30;97.80;;;;;;5040022;28;20087;-68
2022/06/16 03:03:20;;;;;;;3.05;1.67;;;14.30;97.70;;;;;;5040998;28;20768;-68
2022/06/16 03:05:50;;;;;;;6.78;1.83;;;14.30;98.10;;;;;;5039031;28;20448;-68
2022/06/16 03:08:16;;;;;;;3.45;1.30;;;14.20;98.20;;;;;;5042281;28;20033;-69
2022/06/16 03:10:50;;;;;;;4.85;1.30;;;14.20;98.90;;;;;;5039531;28;20476;-68
2022/06/16 03:13:16;;;;;;;4.57;1.20;;;14.20;98.50;;;;;;5032992;28;20522;-68
2022/06/16 03:15:42;;;;;;;3.30;1.70;;;14.10;98.80;;;;;;5032888;28;20045;-69
2022/06/16 03:18:07;;;;;;;2.45;1.20;;;14.10;99.20;;;;;;5022332;28;20770;-70
2022/06/16 03:20:33;;;;;;;3.72;1.73;;;14.00;99.20;;;;;;5040732;28;20393;-68
2022/06/16 03:22:59;;;;;;;2.45;1.33;;;14.00;99.30;;;;;;5021159;28;20041;-66
2022/06/16 03:25:24;;;;;;;5.40;1.48;;;14.00;99.40;;;;;;5045651;28;20499;-69
2022/06/16 03:27:50;;;;;;;5.15;1.60;;;14.00;99.20;;;;;;5020007;28;20030;-69
2022/06/16 03:30:16;;;;;;;2.97;1.23;;;13.90;99.70;;;;;;5041641;28;20044;-66
2022/06/16 03:32:41;;;;;;;5.38;2.13;;;14.00;99.30;;;;;;5020936;28;20126;-67
2022/06/16 03:35:07;;;;;;;2.05;1.35;;;14.00;99.70;;;;;;5040237;28;20102;-69
2022/06/16 03:37:33;;;;;;;3.55;1.33;;;13.90;99.90;;;;;;5040563;28;20037;-68
2022/06/16 03:39:59;;;;;;;4.05;1.58;;;13.90;99.90;;;;;;5038765;28;20053;-66
2022/06/16 03:42:25;;;;;;;4.70;1.48;;;13.90;99.90;;;;;;5022126;28;20048;-69
2022/06/16 03:44:51;;;;;;;3.67;1.38;;;13.90;99.90;;;;;;5020300;28;20045;-69
2022/06/16 03:47:17;;;;;;;7.03;1.55;;;13.80;99.90;;;;;;5041473;28;20048;-69
2022/06/16 03:49:43;;;;;;;4.45;1.50;;;13.90;99.90;;;;;;5020567;28;20501;-68
2022/06/16 03:52:08;;;;;;;4.03;1.50;;;14.00;99.90;;;;;;5040885;28;20072;-69
2022/06/16 03:54:34;;;;;;;3.92;1.67;;;14.00;99.90;;;;;;5022213;28;20032;-66
2022/06/16 03:57:00;;;;;;;3.47;1.40;;;14.10;99.80;;;;;;5021239;28;20124;-67
2022/06/16 03:59:25;;;;;;;3.92;1.55;;;14.10;99.70;;;;;;5040560;28;20501;-69
2022/06/16 04:01:51;;;;;;;3.95;1.75;;;14.10;99.90;;;;;;5038620;28;20087;-69
2022/06/16 04:04:16;;;;;;;8.52;2.00;;;14.20;99.70;;;;;;5040929;28;20043;-68
2022/06/16 04:06:42;;;;;;;5.70;1.35;;;14.20;99.70;;;;;;5038365;28;20473;-70
2022/06/16 04:09:08;;;;;;;6.03;1.52;;;14.30;99.10;;;;;;5021946;28;20045;-69
2022/06/16 04:11:33;;;;;;;5.63;2.10;;;14.30;99.10;;;;;;5039132;28;20059;-69
2022/06/16 04:14:07;;;;;;;2.50;1.13;;;14.40;98.90;;;;;;5020588;28;20095;-66
2022/06/16 04:16:45;;;;;;;4.07;1.67;;;14.40;98.80;;;;;;5039639;28;20032;-69
2022/06/16 04:19:13;;;;;;;2.75;1.38;;;14.40;98.70;;;;;;5022724;28;20112;-69
2022/06/16 04:21:40;;;;;;;3.70;1.33;;;14.40;98.30;;;;;;5023510;28;20414;-68
2022/06/16 04:24:07;;;;;;;8.55;1.77;;;14.40;98.40;;;;;;5038886;28;20481;-69
2022/06/16 04:26:37;;;;;;;3.65;1.13;;;14.40;98.90;;;;;;5023117;28;20064;-67
2022/06/16 04:29:03;;;;;;;2.87;1.33;;;14.40;98.80;;;;;;5021965;28;20033;-68
2022/06/16 04:31:30;;;;;;;4.72;1.80;;;14.40;98.90;;;;;;5036707;28;20025;-69
2022/06/16 04:33:56;;;;;;;1.73;1.00;;;14.40;98.80;;;;;;5019556;28;20121;-69
2022/06/16 04:36:22;;;;;;;2.88;1.40;;;14.40;99.00;;;;;;5032314;28;20108;-68
2022/06/16 04:38:48;;;;;;;3.47;1.17;;;14.50;98.20;;;;;;5036627;28;20021;-68
2022/06/16 04:41:14;;;;;;;5.85;0.90;;;14.50;98.70;;;;;;5034873;28;20076;-69
2022/06/16 04:43:40;;;;;;;6.68;1.63;;;14.50;98.70;;;;;;5023290;28;20030;-69
2022/06/16 04:46:08;;;;;;;5.70;1.40;;;14.60;99.40;;;;;;5039488;28;20033;-69
2022/06/16 04:48:33;;;;;;;3.00;1.00;;;14.60;99.00;;;;;;5020748;28;20025;-68
2022/06/16 04:51:00;;;;;;;1.60;0.82;;;14.60;98.40;;;;;;5037329;28;20036;-69
2022/06/16 04:53:26;;;;;;;2.45;1.23;;;14.60;98.00;;;;;;5037762;28;20386;-69
2022/06/16 04:55:53;;;;;;;4.82;0.95;;;14.70;97.40;;;;;;5036973;28;20029;-67
2022/06/16 04:58:19;;;;;;;4.40;0.90;;;14.60;97.10;;;;;;5039426;28;20120;-68
2022/06/16 05:00:50;;;;;;;3.17;0.90;;;14.70;96.60;;;;;;5012429;28;20120;-68
2022/06/16 05:03:18;;;;;;;2.15;0.95;;;14.70;97.00;;;;;;5026375;28;20489;-68
2022/06/16 05:05:46;;;;;;;3.40;1.00;;;14.70;97.70;;;;;;5030743;28;20045;-69
2022/06/16 05:08:12;;;;;;;2.40;1.23;;;14.70;98.40;;;;;;5012441;28;20086;-69
2022/06/16 05:10:38;;;;;;;4.03;1.30;;;14.70;98.90;;;;;;5031963;28;20033;-68
2022/06/16 05:13:03;;;;;;;3.15;0.77;;;14.70;97.70;;;;;;5009605;28;20044;-68
2022/06/16 05:15:29;;;;;;;2.00;1.17;;;14.80;96.40;;;;;;5031970;28;20513;-69
2022/06/16 05:17:54;;;;;;;2.75;0.93;;;14.80;96.50;;;;;;5030213;28;20041;-68
2022/06/16 05:20:21;;;;;;;3.80;1.17;;;14.90;96.50;;;;;;5008173;28;20478;-68
2022/06/16 05:22:46;;;;;;;5.78;1.40;;;14.90;97.10;;;;;;5010127;28;20022;-66
2022/06/16 05:25:12;;;;;;;4.30;1.30;;;15.00;97.80;;;;;;5016298;28;20041;-69
2022/06/16 05:27:38;;;;;;;3.83;0.80;;;15.00;97.90;;;;;;5013221;28;20073;-68
2022/06/16 05:30:05;;;;;;;3.90;1.23;;;15.10;97.20;;;;;;5029554;28;20033;-67
2022/06/16 05:32:30;;;;;;;5.38;0.77;;;15.10;97.40;;;;;;5011683;28;20033;-68
2022/06/16 05:34:56;;;;;;;6.28;1.15;;;15.20;98.60;;;;;;4991595;28;20036;-69
2022/06/16 05:37:21;;;;;;;2.03;0.80;;;15.30;97.50;;;;;;5028570;28;20044;-68
2022/06/16 05:39:49;;;;;;;3.25;1.00;;;15.40;96.20;;;;;;5032338;28;20398;-66
2022/06/16 05:42:15;;;;;;;6.70;1.25;;;15.70;94.80;;;;;;5031711;28;20556;-69
2022/06/16 05:44:41;;;;;;;3.25;0.80;;;15.90;93.90;;;;;;5008735;28;20042;-68
2022/06/16 05:47:08;;;;;;;6.88;1.45;;;16.10;94.00;;;;;;5027873;28;20037;-69
2022/06/16 05:49:38;;;;;;;2.03;0.73;;;16.50;93.50;;;;;;5030369;28;20047;-68
2022/06/16 05:52:07;;;;;;;2.85;0.70;;;16.90;93.10;;;;;;5030138;28;20529;-67
2022/06/16 05:54:32;;;;;;;2.97;0.93;;;17.30;92.80;;;;;;5027648;28;20060;-68
2022/06/16 05:56:58;;;;;;;6.57;1.05;;;17.70;91.90;;;;;;5029853;28;20038;-68
2022/06/16 05:59:23;;;;;;;2.05;0.60;;;18.20;90.80;;;;;;5026527;28;20294;-69
2022/06/16 06:01:49;;;;;;;1.75;0.68;;;18.60;89.70;;;;;;5028052;28;20053;-68
2022/06/16 06:04:15;;;;;;;3.33;1.33;;;19.10;86.80;;;;;;5026918;28;20045;-68
2022/06/16 06:06:40;;;;;;;4.03;0.60;;;19.30;86.50;;;;;;5038967;28;20097;-71
2022/06/16 06:17:21;;;;;;;1.40;0.73;;;19.90;84.50;;;;;;5038082;28;20125;-67
2022/06/16 06:19:47;;;;;;;3.15;0.70;;;19.90;83.90;;;;;;5041584;28;20029;-67
2022/06/16 06:22:19;;;;;;;2.00;0.50;;;19.90;84.70;;;;;;5021933;28;20055;-69
2022/06/16 06:24:54;;;;;;;1.88;0.47;;;19.90;83.00;;;;;;5042389;28;20029;-69
2022/06/16 06:27:41;;;;;;;3.88;0.43;;;19.90;82.20;;;;;;5040458;28;20044;-68
2022/06/16 06:30:12;;;;;;;1.55;0.55;;;20.00;84.60;;;;;;5034453;28;20041;-67
2022/06/16 06:32:38;;;;;;;1.25;0.50;;;20.10;83.20;;;;;;5035642;28;20520;-70
2022/06/16 06:35:04;;;;;;;3.03;0.60;;;20.40;80.70;;;;;;5023799;28;20041;-67
2022/06/16 06:37:30;;;;;;;2.53;0.88;;;20.50;82.80;;;;;;5039645;28;20059;-68
2022/06/16 06:39:56;;;;;;;3.75;1.00;;;20.80;82.50;;;;;;5040803;28;20034;-69
2022/06/16 06:42:22;;;;;;;1.52;0.43;;;20.90;83.20;;;;;;5041714;28;20038;-68
2022/06/16 06:44:48;;;;;;;3.08;0.40;;;21.30;76.80;;;;;;5040805;28;20695;-68
2022/06/16 06:47:24;;;;;;;3.72;0.90;;;21.50;78.60;;;;;;5017605;28;20120;-71
2022/06/16 06:49:50;;;;;;;1.38;0.45;;;21.80;73.80;;;;;;5034243;28;20053;-67
2022/06/16 06:52:16;;;;;;;4.07;0.45;;;21.80;75.90;;;;;;5038075;28;20532;-67
2022/06/16 06:54:43;;;;;;;3.63;0.88;;;22.00;73.60;;;;;;5042184;28;20124;-69
2022/06/16 06:57:12;;;;;;;0.45;0.30;;;22.10;75.50;;;;;;5040704;28;20056;-69
2022/06/16 06:59:37;;;;;;;5.95;0.88;;;22.20;76.90;;;;;;5038828;28;20370;-69
2022/06/16 07:02:03;;;;;;;2.58;0.57;;;22.40;76.60;;;;;;5041422;28;20036;-68
2022/06/16 07:04:29;;;;;;;4.72;0.47;;;22.90;77.30;;;;;;5039106;28;20029;-69
2022/06/16 07:06:54;;;;;;;3.60;0.43;;;23.40;74.80;;;;;;5040782;28;20409;-69
2022/06/16 07:09:20;;;;;;;0.95;0.40;;;23.80;74.30;;;;;;5035479;28;20703;-69
2022/06/16 07:11:46;;;;;;;4.00;0.63;;;24.50;73.00;;;;;;5021556;28;20037;-70
2022/06/16 07:14:12;;;;;;;1.13;0.57;;;24.90;71.20;;;;;;5040914;28;20029;-70
2022/06/16 07:16:38;;;;;;;3.67;0.77;;;25.60;71.20;;;;;;5019179;28;20030;-69
2022/06/16 07:19:04;;;;;;;3.17;1.25;;;26.40;70.40;;;;;;5041418;28;20044;-67
2022/06/16 07:21:30;;;;;;;3.85;0.75;;;26.70;67.10;;;;;;5039009;28;20029;-69
2022/06/16 07:23:55;;;;;;;1.83;0.68;;;27.40;66.30;;;;;;5040157;28;20032;-69
2022/06/16 07:26:22;;;;;;;1.67;0.60;;;28.20;66.00;;;;;;5022080;28;20029;-68
2022/06/16 07:28:48;;;;;;;2.65;0.60;;;28.70;64.00;;;;;;5021163;28;20037;-70
2022/06/16 07:31:15;;;;;;;2.40;0.80;;;29.40;61.30;;;;;;5022031;28;20029;-70
2022/06/16 07:33:41;;;;;;;4.10;1.05;;;30.20;61.90;;;;;;5020930;28;20036;-70
2022/06/16 07:36:08;;;;;;;2.35;0.90;;;31.20;58.90;;;;;;5040677;28;20029;-68
2022/06/16 07:38:34;;;;;;;2.88;1.17;;;31.50;57.90;;;;;;5038421;28;20078;-68
2022/06/16 07:43:43;;;;;;;3.08;0.95;;;32.30;56.00;;;;;;5037837;28;20044;-70
2022/06/16 07:46:09;;;;;;;1.60;0.70;;;32.10;53.90;;;;;;5037796;28;20046;-70
2022/06/16 07:48:35;;;;;;;3.38;1.17;;;32.00;53.70;;;;;;5041582;28;20124;-68
2022/06/16 07:51:01;;;;;;;3.88;1.08;;;32.10;54.90;;;;;;5019161;28;20167;-68
2022/06/16 07:53:26;;;;;;;4.47;1.45;;;32.60;55.50;;;;;;5040732;28;20110;-70
2022/06/16 07:55:52;;;;;;;1.70;1.00;;;33.00;53.70;;;;;;5038368;28;20532;-69
2022/06/16 07:58:17;;;;;;;2.22;0.90;;;32.70;52.90;;;;;;5021303;28;20036;-70
2022/06/16 08:00:43;;;;;;;3.60;0.93;;;32.60;54.50;;;;;;5039735;28;20554;-68
2022/06/16 08:03:09;;;;;;;3.47;1.17;;;32.50;53.90;;;;;;5037078;28;20034;-70
2022/06/16 08:05:34;;;;;;;1.45;0.93;;;32.50;52.90;;;;;;5041092;28;20032;-69
2022/06/16 08:08:00;;;;;;;2.38;1.10;;;32.30;52.90;;;;;;5039355;28;20037;-69
2022/06/16 08:10:33;;;;;;;2.25;1.05;;;32.20;51.80;;;;;;5037850;28;20040;-68
2022/06/16 08:12:59;;;;;;;3.50;1.20;;;31.90;51.80;;;;;;5040277;28;20112;-70
2022/06/16 08:15:24;;;;;;;3.13;1.17;;;31.50;52.20;;;;;;5037803;28;20124;-69
2022/06/16 08:17:52;;;;;;;3.33;1.17;;;30.90;51.50;;;;;;5039489;28;20500;-67
2022/06/16 08:20:19;;;;;;;1.38;0.75;;;30.90;51.30;;;;;;5038500;28;20498;-70
2022/06/16 08:22:45;;;;;;;3.28;1.02;;;30.50;52.40;;;;;;5020212;28;20485;-70
2022/06/16 08:25:12;;;;;;;3.80;0.80;;;29.70;52.40;;;;;;5039251;28;20039;-69
2022/06/16 08:27:40;;;;;;;1.88;0.90;;;28.80;53.50;;;;;;5019871;28;20029;-69
2022/06/16 08:30:09;;;;;;;1.73;0.73;;;28.00;53.60;;;;;;5039007;28;20039;-67
2022/06/16 08:32:36;;;;;;;2.10;0.75;;;27.30;57.40;;;;;;5037334;28;20040;-68
2022/06/16 08:35:01;;;;;;;3.88;0.70;;;26.70;55.40;;;;;;5022092;28;20520;-69
2022/06/16 08:37:27;;;;;;;5.20;0.90;;;26.60;57.50;;;;;;5018719;28;20038;-69
2022/06/16 08:39:52;;;;;;;3.63;0.98;;;26.40;57.00;;;;;;5039214;28;20040;-68
2022/06/16 08:43:11;;;;;;;5.95;0.85;;;26.30;57.60;;;;;;5041181;28;20040;-69
2022/06/16 08:45:43;;;;;;;2.95;1.23;;;26.20;58.40;;;;;;4994892;28;20046;-67
2022/06/16 08:48:26;;;;;;;4.10;1.10;;;25.80;58.00;;;;;;5031213;28;20520;-68
2022/06/16 08:50:55;;;;;;;5.43;0.75;;;25.70;60.20;;;;;;5039113;28;20041;-68
2022/06/16 08:53:46;;;;;;;1.17;0.70;;;25.50;57.70;;;;;;5036714;28;20586;-67
2022/06/16 08:56:21;;;;;;;1.30;0.65;;;25.50;59.30;;;;;;5035716;28;20067;-69
2022/06/16 08:58:50;;;;;;;2.72;0.70;;;25.40;59.90;;;;;;5037209;28;20025;-71
2022/06/16 09:01:25;;;;;;;1.15;0.63;;;25.00;59.30;;;;;;5020320;28;20083;-69
2022/06/16 09:04:11;;;;;;;2.20;0.98;;;24.90;59.50;;;;;;5036468;28;20033;-68
2022/06/16 09:07:15;;;;;;;2.05;0.75;;;24.80;62.60;;;;;;5033573;28;20405;-68
2022/06/16 09:10:15;;;;;;;2.47;0.60;;;24.80;62.70;;;;;;4956873;28;20035;-67
2022/06/16 09:13:17;;;;;;;4.95;0.95;;;24.80;62.20;;;;;;5035010;28;20099;-67
2022/06/16 09:15:48;;;;;;;2.72;0.65;;;24.70;61.80;;;;;;5035828;28;20060;-69
2022/06/16 09:18:29;;;;;;;3.50;0.90;;;24.70;62.50;;;;;;5037289;28;20210;-69
2022/06/16 09:20:55;;;;;;;2.42;1.08;;;24.70;63.00;;;;;;5031899;28;20437;-67
2022/06/16 09:23:33;;;;;;;6.55;1.10;;;24.70;63.80;;;;;;5038308;28;20036;-68
2022/06/16 09:26:05;;;;;;;4.75;1.02;;;24.80;62.40;;;;;;5018491;28;20116;-70
2022/06/16 09:28:39;;;;;;;4.20;0.50;;;24.80;61.50;;;;;;5033016;28;20083;-69
2022/06/16 09:31:13;;;;;;;1.15;0.50;;;25.00;63.00;;;;;;5020019;28;20059;-70
2022/06/16 09:33:45;;;;;;;3.58;0.70;;;25.00;62.40;;;;;;5019454;28;20030;-69
2022/06/16 09:36:16;;;;;;;2.53;0.98;;;25.10;63.70;;;;;;5019365;28;20038;-68
2022/06/16 09:38:53;;;;;;;1.05;0.45;;;25.20;63.10;;;;;;5038108;28;20037;-68
2022/06/16 09:45:01;;;;;;;2.80;1.13;;;25.40;63.20;;;;;;5031566;28;20570;-69
2022/06/16 09:47:32;;;;;;;2.35;0.88;;;25.30;61.70;;;;;;4993857;28;20040;-67
2022/06/16 09:50:07;;;;;;;1.83;0.60;;;25.30;61.30;;;;;;5036313;28;20040;-69
2022/06/16 09:52:43;;;;;;;1.95;0.57;;;25.20;62.70;;;;;;5042124;28;20028;-69
2022/06/16 09:55:17;;;;;;;2.38;0.90;;;25.30;62.90;;;;;;5040982;28;20029;-70
2022/06/16 09:57:48;;;;;;;5.80;1.13;;;25.40;61.80;;;;;;5023795;28;20029;-68
2022/06/16 10:00:21;;;;;;;3.50;0.60;;;25.20;62.30;;;;;;5041534;28;20124;-68
2022/06/16 10:02:46;;;;;;;1.52;0.55;;;25.10;61.40;;;;;;5040035;28;20036;-70
2022/06/16 10:05:17;;;;;;;4.20;0.50;;;25.00;61.50;;;;;;5041283;28;20030;-68
2022/06/16 10:08:00;;;;;;;3.10;0.43;;;25.20;61.20;;;;;;5023561;28;20029;-68
2022/06/16 10:10:28;;;;;;;3.03;0.82;;;25.40;63.40;;;;;;5035963;28;20029;-69
2022/06/16 10:13:19;;;;;;;3.13;0.80;;;25.60;63.60;;;;;;5034151;28;20113;-68
2022/06/16 10:15:54;;;;;;;;;;;25.60;61.40;;;;;;5041291;28;20034;-69
2022/06/16 10:18:21;;;;;;;2.67;0.70;;;25.80;61.10;;;;;;5021248;28;19921;-69
2022/06/16 10:20:46;;;;;;;1.98;0.80;;;25.90;60.70;;;;;;5023973;28;20040;-69
2022/06/16 10:23:41;;;;;;;7.22;0.50;;;25.90;60.10;;;;;;5040161;28;20028;-69
2022/06/16 10:26:08;;;;;;;3.42;0.70;;;25.80;60.70;;;;;;5039139;28;20049;-67
2022/06/16 10:29:06;;;;;;;1.92;0.35;;;25.80;60.70;;;;;;5024040;28;20025;-70
2022/06/16 10:31:46;;;;;;;5.25;0.77;;;25.60;61.50;;;;;;5019475;28;20092;-70
2022/06/16 10:34:31;;;;;;;2.60;0.80;;;25.50;63.70;;;;;;5036207;28;20460;-69
2022/06/16 10:37:00;;;;;;;2.00;0.80;;;25.60;62.50;;;;;;5039314;28;20048;-68
2022/06/16 10:40:00;;;;;;;3.13;0.45;;;25.60;62.20;;;;;;5026909;28;20047;-68
2022/06/16 10:42:30;;;;;;;1.17;0.60;;;25.70;62.80;;;;;;5012534;28;20112;-69
2022/06/16 10:45:01;;;;;;;4.75;0.82;;;25.80;64.10;;;;;;5038883;28;20095;-69
2022/06/16 10:47:34;;;;;;;2.65;0.82;;;25.80;61.70;;;;;;5042566;28;20053;-69
2022/06/16 10:50:02;;;;;;;3.03;0.98;;;25.70;63.10;;;;;;5023349;28;20041;-68
2022/06/16 10:52:41;;;;;;;5.78;0.98;;;25.60;64.30;;;;;;5042300;28;20493;-70
2022/06/16 10:55:15;;;;;;;2.22;0.63;;;25.60;63.70;;;;;;5039816;28;20545;-69
2022/06/16 10:57:47;;;;;;;4.25;0.73;;;25.80;60.70;;;;;;5039922;28;20036;-69
2022/06/16 11:00:22;;;;;;;4.40;1.00;;;25.80;65.60;;;;;;5038277;28;20079;-68
2022/06/16 11:03:15;;;;;;;1.63;0.68;;;26.00;62.30;;;;;;5038272;28;20032;-69
2022/06/16 11:05:57;;;;;;;1.70;0.65;;;26.00;62.70;;;;;;5038948;28;20033;-69
2022/06/16 11:08:31;;;;;;;1.70;1.00;;;25.90;64.10;;;;;;5038031;28;20037;-67
2022/06/16 11:10:59;;;;;;;8.35;1.02;;;26.00;64.20;;;;;;5018010;28;20037;-68
2022/06/16 11:13:35;;;;;;;3.55;1.15;;;26.00;63.10;;;;;;5023460;28;20110;-68
2022/06/16 11:16:10;;;;;;;4.00;0.90;;;26.00;65.90;;;;;;5038901;28;20038;-68
2022/06/16 11:18:37;;;;;;;4.85;0.68;;;25.90;63.60;;;;;;5040146;28;20779;-69
2022/06/16 11:21:15;;;;;;;2.13;0.82;;;25.90;62.90;;;;;;5020813;28;20037;-67
2022/06/16 11:23:47;;;;;;;4.57;0.65;;;25.90;62.20;;;;;;5039047;28;20060;-69
2022/06/16 11:26:28;;;;;;;1.35;0.80;;;25.80;62.30;;;;;;5042418;28;20048;-69
2022/06/16 11:29:04;;;;;;;2.50;1.05;;;25.80;62.30;;;;;;5034880;28;20125;-67
2022/06/16 11:32:04;;;;;;;2.17;0.90;;;25.90;61.20;;;;;;5040423;28;20489;-70
2022/06/16 11:34:30;;;;;;;5.80;0.82;;;26.10;63.20;;;;;;5005762;28;20030;-68
2022/06/16 11:37:05;;;;;;;3.63;0.75;;;26.30;60.00;;;;;;5040753;28;20035;-69
2022/06/16 11:39:55;;;;;;;4.05;0.73;;;26.30;61.50;;;;;;5038550;28;20045;-68
2022/06/16 11:42:20;;;;;;;12.70;0.90;;;26.30;63.10;;;;;;5037556;28;20393;-69
2022/06/16 11:44:49;;;;;;;2.20;0.80;;;26.20;62.30;;;;;;5037524;28;20041;-69
2022/06/16 11:47:33;;;;;;;1.58;0.50;;;26.20;62.90;;;;;;5040864;28;20552;-68
2022/06/16 11:50:34;;;;;;;2.38;0.63;;;26.20;63.60;;;;;;5036286;28;20095;-68
2022/06/16 11:53:11;;;;;;;8.68;0.90;;;26.20;63.90;;;;;;5035670;28;20040;-69
2022/06/16 11:55:45;;;;;;;5.53;0.60;;;26.10;62.80;;;;;;5039375;28;20093;-69
2022/06/16 11:58:33;;;;;;;2.67;0.77;;;26.00;61.50;;;;;;5039797;28;20127;-69
2022/06/16 12:01:24;;;;;;;2.97;1.02;;;26.00;63.50;;;;;;5017886;28;20049;-69
2022/06/16 12:04:27;;;;;;;2.92;0.55;;;26.00;63.60;;;;;;5015402;28;20038;-68
2022/06/16 12:07:11;;;;;;;3.00;0.90;;;26.20;64.00;;;;;;5034359;28;20512;-70
2022/06/16 12:09:57;;;;;;;1.38;0.70;;;26.10;63.50;;;;;;5038354;28;20033;-69
2022/06/16 12:12:32;;;;;;;3.28;0.70;;;26.10;63.70;;;;;;5038451;28;20423;-68
2022/06/16 12:15:25;;;;;;;2.25;0.90;;;26.00;62.30;;;;;;5038025;28;20029;-69
2022/06/16 12:17:50;;;;;;;4.63;0.60;;;26.00;62.10;;;;;;5040734;28;20041;-69
2022/06/16 12:20:31;;;;;;;3.67;0.55;;;25.80;63.00;;;;;;5018506;28;20049;-67
2022/06/16 12:23:08;;;;;;;1.52;0.80;;;25.80;63.40;;;;;;5034434;28;20030;-69
2022/06/16 12:25:36;;;;;;;1.83;0.70;;;25.80;63.20;;;;;;5040901;28;20071;-69
2022/06/16 12:28:38;;;;;;;1.52;0.70;;;25.80;63.90;;;;;;5037251;28;20101;-69
2022/06/16 12:31:22;;;;;;;4.30;0.60;;;25.80;64.70;;;;;;5034819;28;20049;-70
2022/06/16 12:34:05;;;;;;;1.42;0.65;;;25.80;64.10;;;;;;5031661;28;20502;-69
2022/06/16 12:36:40;;;;;;;1.27;0.65;;;25.90;65.70;;;;;;5036992;28;20041;-68
2022/06/16 12:39:34;;;;;;;2.47;0.70;;;25.70;62.60;;;;;;5019074;28;20493;-68
2022/06/16 12:42:06;;;;;;;1.48;0.70;;;25.70;64.30;;;;;;5037112;28;20021;-69
2022/06/16 12:44:51;;;;;;;4.68;1.08;;;25.80;64.90;;;;;;5037945;28;20033;-69
2022/06/16 12:47:37;;;;;;;2.63;0.82;;;25.80;65.20;;;;;;5021893;28;20037;-69
2022/06/16 12:50:13;;;;;;;10.35;0.70;;;25.80;64.60;;;;;;5036909;28;20175;-68
2022/06/16 12:52:44;;;;;;;4.93;0.65;;;25.70;64.00;;;;;;5019218;28;20046;-70
2022/06/16 12:55:17;;;;;;;2.30;0.57;;;25.60;64.40;;;;;;5021098;28;20025;-69
2022/06/16 12:57:48;;;;;;;1.08;0.70;;;25.50;65.40;;;;;;5033064;28;20025;-69
2022/06/16 13:00:19;;;;;;;5.90;1.00;;;25.50;64.70;;;;;;5031997;28;20042;-67
2022/06/16 13:02:55;;;;;;;3.10;0.82;;;25.50;64.50;;;;;;5032730;28;20060;-69
2022/06/16 13:05:20;;;;;;;4.03;0.80;;;25.50;65.10;;;;;;5015847;28;20037;-69
2022/06/16 13:07:53;;;;;;;5.13;1.35;;;25.50;65.30;;;;;;5040190;28;20036;-69
2022/06/16 13:10:18;;;;;;;3.35;0.68;;;25.40;63.90;;;;;;5032549;28;20065;-70
2022/06/16 13:12:53;;;;;;;1.25;0.50;;;25.40;65.00;;;;;;5039871;28;20493;-69
2022/06/16 13:15:31;;;;;;;1.33;0.50;;;25.50;65.00;;;;;;5039416;28;20045;-69
2022/06/16 13:18:16;;;;;;;3.08;0.60;;;25.50;63.40;;;;;;5037324;28;20037;-68
2022/06/16 13:20:47;;;;;;;2.05;0.50;;;25.60;63.80;;;;;;5032199;28;20049;-68
2022/06/16 13:23:30;;;;;;;3.08;0.60;;;25.60;64.20;;;;;;5031459;28;20041;-69
2022/06/16 13:26:16;;;;;;;1.10;0.80;;;25.60;65.00;;;;;;5035514;28;20037;-67
2022/06/16 13:29:15;;;;;;;1.98;0.60;;;25.50;64.40;;;;;;5038480;28;20044;-68
2022/06/16 13:31:43;;;;;;;3.55;0.80;;;25.40;62.50;;;;;;5031942;28;20040;-69